Terminal Aerodrome Forecast
Issued by NWS Austin/San Antonio, TX

Home | Current Version | Previous Version | Text Only | Print | Product List | Glossary On
Versions: 1 2 3 4 5 6 7 8 9 10 11 12 13 14 15 16 17 18 19 20 21 22 23 24 25 26 27 28 29
000
FTUS44 KEWX 301459 AAA
TAFAUS
TAF AMD
KAUS 301459Z 3015/0118 20003KT P6SM VCSH SCT015 BKN030 BKN200
     FM301700 20010KT P6SM VCSH SCT030 SCT250
     FM301800 20010KT P6SM VCSH SCT045 SCT250
     FM302200 16011KT P6SM VCSH SCT050 SCT250
     FM010900 22007KT P6SM SCT012 SCT250
     FM011600 22008KT P6SM SCT028 SCT250=

USA.gov is the U.S. government's official web portal to all federal, state and local government web resources and services.